Time;durP1;ratioP1;P1;durP2;ratioP2;P2;SDS_P1;SDS_P2;PMS_P1;PMS_P2;Temp;Humidity;BMP_temperature;BMP_pressure;BME280_temperature;BME280_humidity;BME280_pressure;Samples;Min_cycle;Max_cycle;Signal;HPM_P1;HPM_P2
2021/05/10 00:00:46;;;;;;;8.05;6.38;;;;;;;;;;5052823;28;20033;-69
2021/05/10 00:03:12;;;;;;;9.95;6.18;;;;;;;;;;5053765;28;20040;-69
2021/05/10 00:05:38;;;;;;;7.47;6.43;;;;;;;;;;5053551;28;20025;-69
2021/05/10 00:08:05;;;;;;;7.13;6.15;;;;;;;;;;5053787;28;20028;-69
2021/05/10 00:10:31;;;;;;;7.07;6.38;;;;;;;;;;5053745;28;20062;-69
2021/05/10 00:12:57;;;;;;;7.47;6.03;;;;;;;;;;5052936;28;20108;-68
2021/05/10 00:15:23;;;;;;;8.02;5.82;;;;;;;;;;5053482;28;20459;-69
2021/05/10 00:17:49;;;;;;;6.57;5.97;;;;;;;;;;5054027;28;20381;-69
2021/05/10 00:20:15;;;;;;;7.47;6.43;;;;;;;;;;5053218;28;20041;-69
2021/05/10 00:22:41;;;;;;;7.90;6.00;;;;;;;;;;5053313;28;20458;-68
2021/05/10 00:25:07;;;;;;;9.15;5.93;;;;;;;;;;5053075;28;20421;-69
2021/05/10 00:27:33;;;;;;;6.95;5.50;;;;;;;;;;5053008;28;20056;-69
2021/05/10 00:29:59;;;;;;;7.88;5.65;;;;;;;;;;5053184;28;20025;-69
2021/05/10 00:32:25;;;;;;;7.13;5.75;;;;;;;;;;5053284;28;20374;-69
2021/05/10 00:34:52;;;;;;;8.60;5.57;;;;;;;;;;5053248;28;20029;-69
2021/05/10 00:37:19;;;;;;;6.78;5.50;;;;;;;;;;5053173;28;20118;-68
2021/05/10 00:39:45;;;;;;;9.73;6.20;;;;;;;;;;5053195;28;20474;-69
2021/05/10 00:42:11;;;;;;;7.38;6.25;;;;;;;;;;5052730;28;20037;-69
2021/05/10 00:44:37;;;;;;;6.50;5.82;;;;;;;;;;5053059;28;20029;-70
2021/05/10 00:47:03;;;;;;;7.85;6.25;;;;;;;;;;5052985;28;20114;-69
2021/05/10 00:49:29;;;;;;;7.18;5.90;;;;;;;;;;5053054;28;20025;-68
2021/05/10 00:51:55;;;;;;;7.60;5.18;;;;;;;;;;5053445;28;20031;-68
2021/05/10 00:54:21;;;;;;;8.68;5.22;;;;;;;;;;5052930;28;20021;-69
2021/05/10 00:56:47;;;;;;;6.93;5.53;;;;;;;;;;5053318;28;20028;-69
2021/05/10 00:59:16;;;;;;;6.28;5.03;;;;;;;;;;5056976;28;20029;-69
2021/05/10 01:01:47;;;;;;;5.77;4.97;;;;;;;;;;5056698;28;20033;-69
2021/05/10 01:04:16;;;;;;;7.90;5.97;;;;;;;;;;5057248;28;20260;-69
2021/05/10 01:06:47;;;;;;;10.10;6.22;;;;;;;;;;5056308;28;20036;-71
2021/05/10 01:09:18;;;;;;;5.95;5.10;;;;;;;;;;5056837;28;20470;-69
2021/05/10 01:11:47;;;;;;;9.90;5.83;;;;;;;;;;5056475;28;20053;-69
2021/05/10 01:14:17;;;;;;;6.50;5.68;;;;;;;;;;5056641;28;20463;-69
2021/05/10 01:16:47;;;;;;;6.20;4.85;;;;;;;;;;5055891;28;20021;-69
2021/05/10 01:19:19;;;;;;;5.47;4.97;;;;;;;;;;5056670;28;20083;-69
2021/05/10 01:21:51;;;;;;;7.78;4.70;;;;;;;;;;5056163;28;20033;-69
2021/05/10 01:24:21;;;;;;;5.87;5.17;;;;;;;;;;5056428;28;20025;-69
2021/05/10 01:26:50;;;;;;;5.50;5.00;;;;;;;;;;5056279;28;20029;-69
2021/05/10 01:29:19;;;;;;;5.85;5.32;;;;;;;;;;5055463;28;20056;-69
2021/05/10 01:31:48;;;;;;;9.05;5.57;;;;;;;;;;5055319;28;20063;-69
2021/05/10 01:34:20;;;;;;;5.88;5.35;;;;;;;;;;5054715;28;20052;-69
2021/05/10 01:36:48;;;;;;;6.40;5.30;;;;;;;;;;5055424;28;20104;-69
2021/05/10 01:39:18;;;;;;;5.82;5.28;;;;;;;;;;5054785;28;20299;-69
2021/05/10 01:41:49;;;;;;;5.45;4.95;;;;;;;;;;5055289;28;20525;-69
2021/05/10 01:44:19;;;;;;;5.95;5.13;;;;;;;;;;5055906;28;20482;-69
2021/05/10 01:46:49;;;;;;;6.55;4.90;;;;;;;;;;5055949;28;20036;-69
2021/05/10 01:49:17;;;;;;;5.47;4.82;;;;;;;;;;5056009;28;20032;-69
2021/05/10 01:51:45;;;;;;;5.60;5.10;;;;;;;;;;5055855;28;20025;-69
2021/05/10 01:54:13;;;;;;;5.75;4.88;;;;;;;;;;5055880;28;20029;-69
2021/05/10 01:56:42;;;;;;;8.02;5.35;;;;;;;;;;5055758;28;20025;-69
2021/05/10 01:59:13;;;;;;;5.75;5.22;;;;;;;;;;5055448;28;20064;-69
2021/05/10 02:01:40;;;;;;;7.38;5.35;;;;;;;;;;5054843;28;20029;-69
2021/05/10 02:04:09;;;;;;;9.02;5.10;;;;;;;;;;5054473;28;20029;-69
2021/05/10 02:06:40;;;;;;;7.70;5.85;;;;;;;;;;5053994;28;20470;-69
2021/05/10 02:09:13;;;;;;;7.25;5.65;;;;;;;;;;5052811;28;20078;-69
2021/05/10 02:11:45;;;;;;;7.78;5.13;;;;;;;;;;5054289;28;20032;-70
2021/05/10 02:14:14;;;;;;;5.33;4.83;;;;;;;;;;5055378;28;20017;-69
2021/05/10 02:16:44;;;;;;;8.80;5.40;;;;;;;;;;5054862;28;20459;-69
2021/05/10 02:19:14;;;;;;;6.50;5.32;;;;;;;;;;5054961;28;20037;-69
2021/05/10 02:21:42;;;;;;;5.75;5.15;;;;;;;;;;5055477;28;20155;-69
2021/05/10 02:24:10;;;;;;;6.22;4.57;;;;;;;;;;5054069;28;20390;-69
2021/05/10 02:26:41;;;;;;;4.90;4.40;;;;;;;;;;5054110;28;20379;-69
2021/05/10 02:29:08;;;;;;;10.52;4.65;;;;;;;;;;5054067;28;20492;-69
2021/05/10 02:31:34;;;;;;;6.60;5.10;;;;;;;;;;5055193;28;20025;-69
2021/05/10 02:34:00;;;;;;;5.13;4.63;;;;;;;;;;5055337;28;20028;-69
2021/05/10 02:36:26;;;;;;;5.78;5.22;;;;;;;;;;5055056;28;20082;-69
2021/05/10 02:38:52;;;;;;;5.40;4.57;;;;;;;;;;5054782;28;20120;-69
2021/05/10 02:41:18;;;;;;;5.13;4.63;;;;;;;;;;5055389;28;20025;-69
2021/05/10 02:43:44;;;;;;;5.70;4.85;;;;;;;;;;5054895;28;20033;-69
2021/05/10 02:46:10;;;;;;;7.07;4.95;;;;;;;;;;5055193;28;20032;-69
2021/05/10 02:48:36;;;;;;;8.13;4.88;;;;;;;;;;5055127;28;20052;-69
2021/05/10 02:51:02;;;;;;;6.05;5.45;;;;;;;;;;5054646;28;20095;-69
2021/05/10 02:53:28;;;;;;;5.70;4.97;;;;;;;;;;5054510;28;20095;-69
2021/05/10 02:55:54;;;;;;;5.72;5.05;;;;;;;;;;5054761;28;20029;-69
2021/05/10 02:58:20;;;;;;;6.88;4.32;;;;;;;;;;5054656;28;20025;-69
2021/05/10 03:00:46;;;;;;;7.90;5.25;;;;;;;;;;5050572;28;20036;-69
2021/05/10 03:03:12;;;;;;;5.70;4.90;;;;;;;;;;5049603;28;20486;-69
2021/05/10 03:05:40;;;;;;;9.40;4.88;;;;;;;;;;5054769;28;20021;-69
2021/05/10 03:08:06;;;;;;;8.20;4.80;;;;;;;;;;5054657;28;20028;-69
2021/05/10 03:10:32;;;;;;;7.55;5.82;;;;;;;;;;5054966;28;20476;-69
2021/05/10 03:12:58;;;;;;;6.97;4.75;;;;;;;;;;5053776;28;20033;-69
2021/05/10 03:15:24;;;;;;;9.43;5.22;;;;;;;;;;5054191;28;20033;-69
2021/05/10 03:17:51;;;;;;;12.73;5.68;;;;;;;;;;5055055;28;20463;-69
2021/05/10 03:20:18;;;;;;;7.70;5.75;;;;;;;;;;5054064;28;20086;-69
2021/05/10 03:22:44;;;;;;;7.85;5.38;;;;;;;;;;5054107;28;20488;-69
2021/05/10 03:25:10;;;;;;;6.43;4.72;;;;;;;;;;5054320;28;20036;-69
2021/05/10 03:27:39;;;;;;;7.65;5.32;;;;;;;;;;5054022;28;20076;-70
2021/05/10 03:30:14;;;;;;;10.10;5.45;;;;;;;;;;5054141;28;20049;-69
2021/05/10 03:32:40;;;;;;;8.68;5.80;;;;;;;;;;5054033;28;20509;-69
2021/05/10 03:35:07;;;;;;;6.65;5.07;;;;;;;;;;5053543;28;20025;-69
2021/05/10 03:37:33;;;;;;;10.93;4.85;;;;;;;;;;5053915;28;20029;-69
2021/05/10 03:39:59;;;;;;;7.57;4.90;;;;;;;;;;5054196;28;20033;-69
2021/05/10 03:42:25;;;;;;;11.60;5.80;;;;;;;;;;5053362;28;20025;-69
2021/05/10 03:44:52;;;;;;;9.10;5.78;;;;;;;;;;5053852;28;20472;-70
2021/05/10 03:47:19;;;;;;;11.18;6.10;;;;;;;;;;5054044;28;20021;-71
2021/05/10 03:49:45;;;;;;;6.20;5.10;;;;;;;;;;5053511;28;20028;-71
2021/05/10 03:52:11;;;;;;;6.30;5.60;;;;;;;;;;5053960;28;20033;-72
2021/05/10 03:54:37;;;;;;;8.75;4.75;;;;;;;;;;5053359;28;20104;-71
2021/05/10 03:57:03;;;;;;;8.38;5.68;;;;;;;;;;5053159;28;20090;-68
2021/05/10 03:59:29;;;;;;;9.02;5.72;;;;;;;;;;5053419;28;20045;-68
2021/05/10 04:01:58;;;;;;;8.10;5.75;;;;;;;;;;5053743;28;20025;-68
2021/05/10 04:04:30;;;;;;;6.85;5.65;;;;;;;;;;5053566;28;20025;-68
2021/05/10 04:15:14;;;;;;;7.35;4.85;;;;;;;;;;5052323;28;20558;-68
2021/05/10 04:17:40;;;;;;;7.35;5.20;;;;;;;;;;5053268;28;20067;-68
2021/05/10 04:20:07;;;;;;;8.85;5.43;;;;;;;;;;5052962;28;20413;-68
2021/05/10 04:22:33;;;;;;;8.10;5.13;;;;;;;;;;5053574;28;20021;-68
2021/05/10 04:24:59;;;;;;;13.32;4.93;;;;;;;;;;5053046;28;20074;-68
2021/05/10 04:27:26;;;;;;;5.85;4.57;;;;;;;;;;5052972;28;20045;-68
2021/05/10 04:29:53;;;;;;;7.57;4.18;;;;;;;;;;5053102;28;20052;-68
2021/05/10 04:32:19;;;;;;;6.13;4.93;;;;;;;;;;5052451;28;20025;-68
2021/05/10 04:34:47;;;;;;;8.30;4.60;;;;;;;;;;5052267;28;20048;-69
2021/05/10 04:37:14;;;;;;;5.57;5.03;;;;;;;;;;5052788;28;20100;-68
2021/05/10 04:39:40;;;;;;;5.30;4.05;;;;;;;;;;5053022;28;20033;-68
2021/05/10 04:42:06;;;;;;;15.63;5.32;;;;;;;;;;5053026;28;20037;-69
2021/05/10 04:44:32;;;;;;;10.63;5.28;;;;;;;;;;5052968;28;20096;-68
2021/05/10 04:46:58;;;;;;;5.53;4.32;;;;;;;;;;5052759;28;20033;-68
2021/05/10 04:49:24;;;;;;;16.80;7.53;;;;;;;;;;5052578;28;20540;-68
2021/05/10 04:51:50;;;;;;;11.35;5.90;;;;;;;;;;5053085;28;20382;-69
2021/05/10 04:54:16;;;;;;;23.10;15.30;;;;;;;;;;5052568;28;20075;-68
2021/05/10 04:56:42;;;;;;;33.03;20.02;;;;;;;;;;5052725;28;20029;-68
2021/05/10 04:59:08;;;;;;;26.15;17.65;;;;;;;;;;5052860;28;20382;-68
2021/05/10 05:01:34;;;;;;;24.23;14.82;;;;;;;;;;5048535;28;20435;-68
2021/05/10 05:04:00;;;;;;;19.38;13.57;;;;;;;;;;5052281;28;20060;-68
2021/05/10 05:06:26;;;;;;;24.70;13.18;;;;;;;;;;5051631;28;20028;-69
2021/05/10 05:08:53;;;;;;;26.48;12.75;;;;;;;;;;5050718;28;20476;-69
2021/05/10 05:11:19;;;;;;;16.67;11.50;;;;;;;;;;5051618;28;20021;-68
2021/05/10 05:13:45;;;;;;;7.68;4.60;;;;;;;;;;5052851;28;20021;-66
2021/05/10 05:16:11;;;;;;;10.02;4.22;;;;;;;;;;5053063;28;20032;-66
2021/05/10 05:18:37;;;;;;;5.88;3.47;;;;;;;;;;5052579;28;20500;-67
2021/05/10 05:21:04;;;;;;;13.23;5.13;;;;;;;;;;5052751;28;20059;-67
2021/05/10 05:23:30;;;;;;;5.05;3.65;;;;;;;;;;5052877;28;20025;-67
2021/05/10 05:25:56;;;;;;;16.00;4.43;;;;;;;;;;5052889;28;20521;-68
2021/05/10 05:28:23;;;;;;;8.10;3.35;;;;;;;;;;5052661;28;20403;-68
2021/05/10 05:30:49;;;;;;;6.22;3.05;;;;;;;;;;5052374;28;20374;-68
2021/05/10 05:33:15;;;;;;;7.40;2.60;;;;;;;;;;5052611;28;20044;-68
2021/05/10 05:35:41;;;;;;;7.07;2.85;;;;;;;;;;5052778;28;20021;-68
2021/05/10 05:38:10;;;;;;;6.82;2.17;;;;;;;;;;5052931;28;20021;-68
2021/05/10 05:40:36;;;;;;;8.23;3.00;;;;;;;;;;5052569;28;20459;-67
2021/05/10 05:43:02;;;;;;;5.93;2.45;;;;;;;;;;5053184;28;20029;-68
2021/05/10 05:45:28;;;;;;;3.47;2.55;;;;;;;;;;5053446;28;20035;-68
2021/05/10 05:47:54;;;;;;;18.75;2.80;;;;;;;;;;5036209;28;20036;-67
2021/05/10 05:50:20;;;;;;;5.60;2.70;;;;;;;;;;5035767;28;20025;-68
2021/05/10 05:52:47;;;;;;;11.30;2.22;;;;;;;;;;5036098;28;20467;-68
2021/05/10 05:55:13;;;;;;;3.33;2.58;;;;;;;;;;5036451;28;20030;-68
2021/05/10 05:57:39;;;;;;;5.85;2.58;;;;;;;;;;5036354;28;20143;-68
2021/05/10 06:00:06;;;;;;;3.15;2.13;;;;;;;;;;5035776;28;20471;-69
2021/05/10 06:02:32;;;;;;;10.77;3.03;;;;;;;;;;5033827;28;20037;-67
2021/05/10 06:04:58;;;;;;;6.82;2.38;;;;;;;;;;5035815;28;20033;-68
2021/05/10 06:07:24;;;;;;;1.75;1.50;;;;;;;;;;5036304;28;20029;-68
2021/05/10 06:09:50;;;;;;;18.27;1.92;;;;;;;;;;5036788;28;20033;-67
2021/05/10 06:12:16;;;;;;;7.03;2.17;;;;;;;;;;5036028;28;20117;-67
2021/05/10 06:14:42;;;;;;;3.08;2.53;;;;;;;;;;5036125;28;20083;-69
2021/05/10 06:17:09;;;;;;;3.13;2.22;;;;;;;;;;5034965;28;20025;-68
2021/05/10 06:19:35;;;;;;;2.10;1.90;;;;;;;;;;5036597;28;20047;-68
2021/05/10 06:22:01;;;;;;;5.85;2.55;;;;;;;;;;5036161;28;20194;-67
2021/05/10 06:24:27;;;;;;;3.42;2.25;;;;;;;;;;5036063;28;20031;-67
2021/05/10 06:26:54;;;;;;;6.82;1.73;;;;;;;;;;5035537;28;20036;-68
2021/05/10 06:29:20;;;;;;;2.65;1.73;;;;;;;;;;5036126;28;20116;-67
2021/05/10 06:31:46;;;;;;;4.63;1.90;;;;;;;;;;5035483;28;20056;-68
2021/05/10 06:34:12;;;;;;;2.60;2.20;;;;;;;;;;5035773;28;20065;-67
2021/05/10 06:36:38;;;;;;;3.45;1.80;;;;;;;;;;5035715;28;20022;-68
2021/05/10 06:39:04;;;;;;;8.38;2.08;;;;;;;;;;5034898;28;20055;-67
2021/05/10 06:41:30;;;;;;;3.25;2.10;;;;;;;;;;5035852;28;20032;-67
2021/05/10 06:43:56;;;;;;;1.88;1.65;;;;;;;;;;5035326;28;20100;-68
2021/05/10 06:46:23;;;;;;;3.72;2.13;;;;;;;;;;5035294;28;20025;-68
2021/05/10 06:48:49;;;;;;;3.03;2.03;;;;;;;;;;5035373;28;20025;-68
2021/05/10 06:51:15;;;;;;;5.38;1.70;;;;;;;;;;5035714;28;20489;-67
2021/05/10 06:53:41;;;;;;;3.08;1.73;;;;;;;;;;5035745;28;20048;-68
2021/05/10 06:56:07;;;;;;;3.08;1.88;;;;;;;;;;5034478;28;20029;-68
2021/05/10 06:58:33;;;;;;;3.22;2.10;;;;;;;;;;5035180;28;20426;-68
2021/05/10 07:01:00;;;;;;;3.10;2.00;;;;;;;;;;5034475;28;20422;-68
2021/05/10 07:03:26;;;;;;;8.18;1.88;;;;;;;;;;5035084;28;20095;-67
2021/05/10 07:05:52;;;;;;;3.70;2.13;;;;;;;;;;5035224;28;20025;-67
2021/05/10 07:08:18;;;;;;;5.13;1.80;;;;;;;;;;5035130;28;20067;-67
2021/05/10 07:10:46;;;;;;;1.75;1.65;;;;;;;;;;5034666;28;20112;-68
2021/05/10 07:13:12;;;;;;;2.65;2.22;;;;;;;;;;5034723;28;20030;-67
2021/05/10 07:15:38;;;;;;;6.60;1.90;;;;;;;;;;5034501;28;20026;-67
2021/05/10 07:18:05;;;;;;;1.80;1.50;;;;;;;;;;5035312;28;20026;-67
2021/05/10 07:20:31;;;;;;;7.55;1.92;;;;;;;;;;5034985;28;20038;-67
2021/05/10 07:22:57;;;;;;;3.30;1.75;;;;;;;;;;5034729;28;20479;-67
2021/05/10 07:25:23;;;;;;;2.92;2.08;;;;;;;;;;5034760;28;20029;-67
2021/05/10 07:27:49;;;;;;;2.55;1.90;;;;;;;;;;5034300;28;20046;-67
2021/05/10 07:30:16;;;;;;;6.70;2.30;;;;;;;;;;5038843;28;20059;-68
2021/05/10 07:32:42;;;;;;;2.13;1.80;;;;;;;;;;5054469;28;20371;-68
2021/05/10 07:35:08;;;;;;;3.17;2.17;;;;;;;;;;5054317;28;20059;-67
2021/05/10 07:37:34;;;;;;;3.15;2.33;;;;;;;;;;5054237;28;20459;-67
2021/05/10 07:40:00;;;;;;;5.53;2.55;;;;;;;;;;5054635;28;20445;-68
2021/05/10 07:42:26;;;;;;;9.35;2.53;;;;;;;;;;5054407;28;20463;-68
2021/05/10 07:44:52;;;;;;;9.68;3.15;;;;;;;;;;5053566;28;20070;-69
2021/05/10 07:47:19;;;;;;;2.50;1.83;;;;;;;;;;5054120;28;20021;-69
2021/05/10 07:49:45;;;;;;;2.38;1.67;;;;;;;;;;5054424;28;20033;-69
2021/05/10 07:52:11;;;;;;;6.93;2.00;;;;;;;;;;5053792;28;20478;-68
2021/05/10 07:54:37;;;;;;;6.20;1.65;;;;;;;;;;5054160;28;20466;-68
2021/05/10 07:57:03;;;;;;;3.35;2.40;;;;;;;;;;5053844;28;20032;-68
2021/05/10 07:59:29;;;;;;;1.98;1.73;;;;;;;;;;5053454;28;20477;-68
2021/05/10 08:01:57;;;;;;;5.60;1.63;;;;;;;;;;5053872;28;20104;-69
2021/05/10 08:04:23;;;;;;;2.03;1.80;;;;;;;;;;5053957;28;20098;-68
2021/05/10 08:06:49;;;;;;;3.13;2.28;;;;;;;;;;5052958;28;20485;-69
2021/05/10 08:09:15;;;;;;;3.75;2.10;;;;;;;;;;5053974;28;20029;-69
2021/05/10 08:11:41;;;;;;;2.97;1.88;;;;;;;;;;5053613;28;20025;-69
2021/05/10 08:14:08;;;;;;;4.72;2.10;;;;;;;;;;5053131;28;20027;-68
2021/05/10 08:16:34;;;;;;;1.83;1.48;;;;;;;;;;5053451;28;20095;-68
2021/05/10 08:19:00;;;;;;;6.28;1.92;;;;;;;;;;5053390;28;20078;-68
2021/05/10 08:21:26;;;;;;;2.55;1.80;;;;;;;;;;5053860;28;20056;-69
2021/05/10 08:23:52;;;;;;;1.48;1.38;;;;;;;;;;5053473;28;20108;-67
2021/05/10 08:26:18;;;;;;;2.08;1.65;;;;;;;;;;5053526;28;20021;-68
2021/05/10 08:28:44;;;;;;;2.47;1.80;;;;;;;;;;5053302;28;20048;-69
2021/05/10 08:31:10;;;;;;;2.20;1.40;;;;;;;;;;5053429;28;20426;-68
2021/05/10 08:33:36;;;;;;;3.67;1.92;;;;;;;;;;5052926;28;20017;-71
2021/05/10 08:36:02;;;;;;;7.53;2.25;;;;;;;;;;5053393;28;20108;-68
2021/05/10 08:38:28;;;;;;;2.00;1.58;;;;;;;;;;5053280;28;20112;-71
2021/05/10 08:40:54;;;;;;;4.90;2.10;;;;;;;;;;5052932;28;20075;-71
2021/05/10 08:43:21;;;;;;;2.47;2.20;;;;;;;;;;5052873;28;20382;-70
2021/05/10 08:45:53;;;;;;;6.13;2.00;;;;;;;;;;5053059;28;20021;-71
2021/05/10 08:48:19;;;;;;;7.18;2.10;;;;;;;;;;5053317;28;20059;-68
2021/05/10 08:50:45;;;;;;;10.85;2.20;;;;;;;;;;5052904;28;20025;-68
2021/05/10 08:53:13;;;;;;;5.00;2.20;;;;;;;;;;5052135;28;20017;-68
2021/05/10 08:55:39;;;;;;;3.45;1.83;;;;;;;;;;5051289;28;20032;-68
2021/05/10 08:58:07;;;;;;;2.78;2.05;;;;;;;;;;5052056;28;20029;-67
2021/05/10 09:00:33;;;;;;;6.47;2.55;;;;;;;;;;5053324;28;20029;-67
2021/05/10 09:03:09;;;;;;;5.65;2.40;;;;;;;;;;5053032;28;20021;-67
2021/05/10 09:05:44;;;;;;;15.63;4.82;;;;;;;;;;5053526;28;20028;-68
2021/05/10 09:08:10;;;;;;;9.63;8.77;;;;;;;;;;5053373;28;20075;-69
2021/05/10 09:10:36;;;;;;;9.10;8.18;;;;;;;;;;5052759;28;20108;-68
2021/05/10 09:13:02;;;;;;;8.70;7.88;;;;;;;;;;5052840;28;20067;-68
2021/05/10 09:15:30;;;;;;;10.30;9.32;;;;;;;;;;5053598;28;20086;-68
2021/05/10 09:17:58;;;;;;;12.82;11.45;;;;;;;;;;5053904;28;20026;-68
2021/05/10 09:20:25;;;;;;;12.40;9.05;;;;;;;;;;5056495;28;20390;-68
2021/05/10 09:22:53;;;;;;;17.10;10.68;;;;;;;;;;5056593;28;20467;-68
2021/05/10 09:25:19;;;;;;;11.00;9.65;;;;;;;;;;5056423;28;20021;-68
2021/05/10 09:27:45;;;;;;;9.57;8.07;;;;;;;;;;5051671;28;20064;-69
2021/05/10 09:30:15;;;;;;;15.93;10.80;;;;;;;;;;5040456;28;20391;-68
2021/05/10 09:32:45;;;;;;;12.82;10.63;;;;;;;;;;5036272;28;20032;-68
2021/05/10 09:35:14;;;;;;;11.80;10.68;;;;;;;;;;5036855;28;20022;-69
2021/05/10 09:37:40;;;;;;;11.77;10.57;;;;;;;;;;5036421;28;20053;-69
2021/05/10 09:40:07;;;;;;;12.25;9.23;;;;;;;;;;5036011;28;20041;-69
2021/05/10 09:42:49;;;;;;;10.45;9.40;;;;;;;;;;5036702;28;20025;-68
2021/05/10 09:45:36;;;;;;;11.18;9.93;;;;;;;;;;5035670;28;20034;-68
2021/05/10 09:48:15;;;;;;;11.13;10.05;;;;;;;;;;5033815;28;20053;-68
2021/05/10 09:50:42;;;;;;;16.02;10.40;;;;;;;;;;5036614;28;20104;-69
2021/05/10 09:53:13;;;;;;;11.95;10.77;;;;;;;;;;5036753;28;20048;-68
2021/05/10 09:55:56;;;;;;;12.68;10.90;;;;;;;;;;5037065;28;20120;-69
2021/05/10 09:58:22;;;;;;;10.73;9.73;;;;;;;;;;5036706;28;20022;-69
2021/05/10 10:00:57;;;;;;;11.55;9.68;;;;;;;;;;5035975;28;20524;-69
2021/05/10 10:03:39;;;;;;;10.65;8.68;;;;;;;;;;5036520;28;20028;-68
2021/05/10 10:06:06;;;;;;;15.13;10.15;;;;;;;;;;5036836;28;20026;-68
2021/05/10 10:08:32;;;;;;;12.93;11.13;;;;;;;;;;5036129;28;20033;-67
2021/05/10 10:10:59;;;;;;;13.68;10.35;;;;;;;;;;5035768;28;20040;-67
2021/05/10 10:13:25;;;;;;;11.63;9.55;;;;;;;;;;5035885;28;20104;-68
2021/05/10 10:15:51;;;;;;;8.55;7.75;;;;;;;;;;5036390;28;20026;-68
2021/05/10 10:18:18;;;;;;;16.30;9.35;;;;;;;;;;5036027;28;20029;-68
2021/05/10 10:20:45;;;;;;;9.60;8.60;;;;;;;;;;5035758;28;20486;-68
2021/05/10 10:23:12;;;;;;;10.02;8.50;;;;;;;;;;5036092;28;20487;-68
2021/05/10 10:25:38;;;;;;;9.82;8.82;;;;;;;;;;5035815;28;20022;-68
2021/05/10 10:28:05;;;;;;;15.65;8.68;;;;;;;;;;5035750;28;20089;-68
2021/05/10 10:30:32;;;;;;;16.95;11.45;;;;;;;;;;5035125;28;20032;-69
2021/05/10 10:32:59;;;;;;;16.05;10.20;;;;;;;;;;5036481;28;20071;-69
2021/05/10 10:35:26;;;;;;;37.85;10.90;;;;;;;;;;5045874;28;20048;-69
2021/05/10 10:37:52;;;;;;;17.63;8.55;;;;;;;;;;5055366;28;20208;-69
2021/05/10 10:40:20;;;;;;;31.63;10.38;;;;;;;;;;5055780;28;20569;-68
2021/05/10 10:42:46;;;;;;;16.67;9.50;;;;;;;;;;5055266;28;20032;-69
2021/05/10 10:45:12;;;;;;;10.48;8.95;;;;;;;;;;5055322;28;20456;-68
2021/05/10 10:47:47;;;;;;;15.40;9.82;;;;;;;;;;5055773;28;20027;-68
2021/05/10 10:50:16;;;;;;;16.63;9.60;;;;;;;;;;5055415;28;20033;-68
2021/05/10 10:52:50;;;;;;;20.58;9.13;;;;;;;;;;5055262;28;20356;-65
2021/05/10 10:55:20;;;;;;;23.80;8.60;;;;;;;;;;5055229;28;20440;-66
2021/05/10 10:57:46;;;;;;;40.58;10.07;;;;;;;;;;5055207;28;20028;-65
2021/05/10 11:00:16;;;;;;;17.90;10.63;;;;;;;;;;5055293;28;20041;-65
2021/05/10 11:02:44;;;;;;;18.95;10.55;;;;;;;;;;5055100;28;20526;-65
2021/05/10 11:05:11;;;;;;;26.10;10.27;;;;;;;;;;5055018;28;20049;-65
2021/05/10 11:07:58;;;;;;;30.00;9.57;;;;;;;;;;5054808;28;20053;-65
2021/05/10 11:10:46;;;;;;;17.70;9.40;;;;;;;;;;5051827;28;20025;-66
2021/05/10 11:13:32;;;;;;;31.90;11.27;;;;;;;;;;5053749;28;20025;-66
2021/05/10 11:16:01;;;;;;;11.65;9.23;;;;;;;;;;5053945;28;20029;-67
2021/05/10 11:18:48;;;;;;;12.38;9.68;;;;;;;;;;5054748;28;20025;-66
2021/05/10 11:21:34;;;;;;;23.45;8.95;;;;;;;;;;5053937;28;20061;-65
2021/05/10 11:24:01;;;;;;;18.33;10.80;;;;;;;;;;5053647;28;20029;-67
2021/05/10 11:26:37;;;;;;;26.73;10.40;;;;;;;;;;5054040;28;20132;-66
2021/05/10 11:29:04;;;;;;;17.95;10.60;;;;;;;;;;5054117;28;20052;-66
2021/05/10 11:31:33;;;;;;;31.88;11.70;;;;;;;;;;5054051;28;20455;-67
2021/05/10 11:34:02;;;;;;;34.75;12.90;;;;;;;;;;5054575;28;20029;-66
2021/05/10 11:36:28;;;;;;;15.35;11.15;;;;;;;;;;5054019;28;20029;-66
2021/05/10 11:38:55;;;;;;;23.08;10.65;;;;;;;;;;5053549;28;20021;-67
2021/05/10 11:41:42;;;;;;;17.88;10.85;;;;;;;;;;5053966;28;20051;-66
2021/05/10 11:44:10;;;;;;;23.90;12.48;;;;;;;;;;5053652;28;20108;-65
2021/05/10 11:46:37;;;;;;;14.90;11.82;;;;;;;;;;5053819;28;20111;-66
2021/05/10 11:49:04;;;;;;;19.55;10.15;;;;;;;;;;5043844;28;20037;-66
2021/05/10 11:51:30;;;;;;;16.63;11.60;;;;;;;;;;5041592;28;20018;-67
2021/05/10 11:53:57;;;;;;;23.88;10.77;;;;;;;;;;5042445;28;20024;-66
2021/05/10 11:56:25;;;;;;;17.13;9.60;;;;;;;;;;5043292;28;20070;-66
2021/05/10 11:58:58;;;;;;;23.65;10.20;;;;;;;;;;5041293;28;20081;-66
2021/05/10 12:01:32;;;;;;;14.80;9.23;;;;;;;;;;5047311;28;20115;-65
2021/05/10 12:03:58;;;;;;;14.07;8.75;;;;;;;;;;5053778;28;20024;-67
2021/05/10 12:06:28;;;;;;;17.13;9.80;;;;;;;;;;5053353;28;20406;-65
2021/05/10 12:08:54;;;;;;;13.45;8.35;;;;;;;;;;5053211;28;20029;-66
2021/05/10 12:11:21;;;;;;;11.60;8.38;;;;;;;;;;5053774;28;20028;-66
2021/05/10 12:13:47;;;;;;;19.02;9.20;;;;;;;;;;5053510;28;20027;-65
2021/05/10 12:16:14;;;;;;;21.10;8.82;;;;;;;;;;5053225;28;20025;-66
2021/05/10 12:18:52;;;;;;;11.10;9.18;;;;;;;;;;5053776;28;20021;-70
2021/05/10 12:21:20;;;;;;;11.98;10.43;;;;;;;;;;5054011;28;20032;-68
2021/05/10 12:23:46;;;;;;;14.30;10.05;;;;;;;;;;5053417;28;20033;-68
2021/05/10 12:26:12;;;;;;;19.38;10.18;;;;;;;;;;5053643;28;20036;-68
2021/05/10 12:28:38;;;;;;;11.98;9.85;;;;;;;;;;5053794;28;20041;-69
2021/05/10 12:31:04;;;;;;;10.63;9.57;;;;;;;;;;5052751;28;20033;-66
2021/05/10 12:33:31;;;;;;;16.27;10.65;;;;;;;;;;5053242;28;20483;-68
2021/05/10 12:35:59;;;;;;;14.02;10.80;;;;;;;;;;5053567;28;20029;-68
2021/05/10 12:38:33;;;;;;;14.82;10.98;;;;;;;;;;5053132;28;20029;-68
2021/05/10 12:41:00;;;;;;;13.15;12.00;;;;;;;;;;5043146;28;20404;-68
2021/05/10 12:43:26;;;;;;;12.75;11.43;;;;;;;;;;5040788;28;20029;-69
2021/05/10 12:46:00;;;;;;;15.13;11.32;;;;;;;;;;5041788;28;20083;-70
2021/05/10 12:48:35;;;;;;;15.40;13.40;;;;;;;;;;5042907;28;20017;-64
2021/05/10 12:51:07;;;;;;;16.25;12.95;;;;;;;;;;5042080;28;20435;-66
2021/05/10 12:53:34;;;;;;;16.55;13.27;;;;;;;;;;5031249;28;20075;-67
2021/05/10 12:56:01;;;;;;;12.15;10.90;;;;;;;;;;5032726;28;20017;-68
2021/05/10 12:58:27;;;;;;;16.85;10.88;;;;;;;;;;5032744;28;20034;-68
2021/05/10 13:00:53;;;;;;;16.90;11.98;;;;;;;;;;5032274;28;20037;-68
2021/05/10 13:03:27;;;;;;;14.32;12.85;;;;;;;;;;5033267;28;20159;-68
2021/05/10 13:05:53;;;;;;;19.38;12.70;;;;;;;;;;5033496;28;20037;-69
2021/05/10 13:08:35;;;;;;;13.55;11.45;;;;;;;;;;5032830;28;20379;-68
2021/05/10 13:11:01;;;;;;;14.30;12.25;;;;;;;;;;5032539;28;20063;-67
2021/05/10 13:13:50;;;;;;;13.20;12.00;;;;;;;;;;5033214;28;20033;-67
2021/05/10 13:16:24;;;;;;;17.45;12.15;;;;;;;;;;5032119;28;20030;-67
2021/05/10 13:19:01;;;;;;;19.08;10.25;;;;;;;;;;5032647;28;20040;-68
2021/05/10 13:22:34;;;;;;;10.90;10.00;;;;;;;;;;5032790;28;20037;-67
2021/05/10 13:31:00;;;;;;;12.90;11.77;;;;;;;;;;5051591;28;20135;-66
2021/05/10 13:32:58;;;;;;;15.80;12.57;;;;;;;;;;5051792;28;20044;-66
2021/05/10 13:35:24;;;;;;;;;;;;;;;;;;5053652;28;20093;-67
2021/05/10 13:38:05;;;;;;;13.07;11.80;;;;;;;;;;5052057;28;20022;-66
2021/05/10 13:40:32;;;;;;;16.85;11.95;;;;;;;;;;5052498;28;20047;-66
2021/05/10 13:43:06;;;;;;;14.02;12.70;;;;;;;;;;5052579;28;20033;-66
2021/05/10 13:45:33;;;;;;;11.45;10.45;;;;;;;;;;5052720;28;20045;-67
2021/05/10 13:47:59;;;;;;;17.17;12.38;;;;;;;;;;5052794;28;20100;-67
2021/05/10 13:50:25;;;;;;;13.10;11.90;;;;;;;;;;5052070;28;20079;-67
2021/05/10 13:52:53;;;;;;;17.50;14.70;;;;;;;;;;5051635;28;20074;-66
2021/05/10 13:55:19;;;;;;;14.32;13.07;;;;;;;;;;5052687;28;20075;-67
2021/05/10 13:57:46;;;;;;;16.25;14.80;;;;;;;;;;5052761;28;20360;-67
2021/05/10 14:00:14;;;;;;;15.65;13.93;;;;;;;;;;5052358;28;20037;-66
2021/05/10 14:02:40;;;;;;;20.90;15.73;;;;;;;;;;5052270;28;20082;-68
2021/05/10 14:05:07;;;;;;;24.55;18.92;;;;;;;;;;5052961;28;20025;-66
2021/05/10 14:07:33;;;;;;;20.17;18.08;;;;;;;;;;5055494;28;20036;-67
2021/05/10 14:09:59;;;;;;;23.10;20.90;;;;;;;;;;5056030;28;20399;-66
2021/05/10 14:12:25;;;;;;;23.75;21.60;;;;;;;;;;5055788;28;20422;-65
2021/05/10 14:14:52;;;;;;;23.02;21.13;;;;;;;;;;5055268;28;20025;-67
2021/05/10 14:17:19;;;;;;;21.90;19.92;;;;;;;;;;5055705;28;20378;-66
2021/05/10 14:19:45;;;;;;;22.38;20.40;;;;;;;;;;5055681;28;20071;-67
2021/05/10 14:22:11;;;;;;;24.90;22.60;;;;;;;;;;5055093;28;20097;-67
2021/05/10 14:24:37;;;;;;;24.30;22.17;;;;;;;;;;5055333;28;20021;-66
2021/05/10 14:27:05;;;;;;;25.85;23.67;;;;;;;;;;5055489;28;20112;-68
2021/05/10 14:29:32;;;;;;;25.02;23.02;;;;;;;;;;5055210;28;20098;-68
2021/05/10 14:31:58;;;;;;;25.30;22.40;;;;;;;;;;5055756;28;20051;-66
2021/05/10 14:34:24;;;;;;;31.00;23.30;;;;;;;;;;5055733;28;20047;-66
2021/05/10 14:36:50;;;;;;;24.45;22.35;;;;;;;;;;5054584;28;20372;-68
2021/05/10 14:39:16;;;;;;;28.25;25.42;;;;;;;;;;5055810;28;20463;-66
2021/05/10 14:41:42;;;;;;;30.70;28.02;;;;;;;;;;5055246;28;20029;-67
2021/05/10 14:44:10;;;;;;;27.80;25.02;;;;;;;;;;5053716;28;20033;-66
2021/05/10 14:46:36;;;;;;;30.25;26.08;;;;;;;;;;5054879;28;20021;-67
2021/05/10 14:49:02;;;;;;;27.08;24.67;;;;;;;;;;5054642;28;20059;-64
2021/05/10 14:51:28;;;;;;;26.27;23.80;;;;;;;;;;5054165;28;20375;-64